Time;durP1;ratioP1;P1;durP2;ratioP2;P2;SDS_P1;SDS_P2;PMS_P1;PMS_P2;Temp;Humidity;BMP_temperature;BMP_pressure;BME280_temperature;BME280_humidity;BME280_pressure;Samples;Min_cycle;Max_cycle;Signal;HPM_P1;HPM_P2
2023/01/17 00:02:16;;;;;;;0.30;0.30;;;8.60;58.00;8.20;93640.00;;;;5057225;28;20255;-83
2023/01/17 00:10:23;;;;;;;0.10;0.10;;;8.60;58.10;8.10;93624.00;;;;5068255;28;20227;-84
2023/01/17 00:13:02;;;;;;;1.13;0.40;;;8.50;58.10;8.10;93621.00;;;;5052925;28;20241;-83
2023/01/17 00:15:31;;;;;;;0.40;0.30;;;8.50;58.10;8.10;93628.00;;;;5061957;28;20242;-84
2023/01/17 00:18:00;;;;;;;0.77;0.30;;;8.50;58.20;8.10;93635.00;;;;5067501;28;20260;-84
2023/01/17 00:26:24;;;;;;;0.50;0.20;;;8.40;58.30;8.00;93649.00;;;;5014253;28;20202;-83
2023/01/17 01:33:36;;;;;;;0.23;0.13;;;8.20;59.40;7.70;93721.00;;;;5062267;28;20212;-84
2023/01/17 01:36:06;;;;;;;0.20;0.10;;;8.20;59.50;7.70;93717.00;;;;5060794;28;20243;-84
2023/01/17 01:38:33;;;;;;;1.17;0.30;;;8.10;59.50;7.70;93716.00;;;;5065089;28;20265;-84
2023/01/17 01:41:07;;;;;;;1.03;0.20;;;8.10;59.40;7.70;93722.00;;;;5064304;28;20224;-84
2023/01/17 01:43:45;;;;;;;0.40;0.30;;;8.10;59.40;7.70;93716.00;;;;5060860;28;20221;-84
2023/01/17 01:46:21;;;;;;;0.30;0.10;;;8.10;59.40;7.70;93720.00;;;;5055959;28;20633;-84
2023/01/17 01:49:13;;;;;;;0.57;0.23;;;8.10;59.40;7.70;93718.00;;;;5068813;28;20325;-84
2023/01/17 01:51:46;;;;;;;0.10;0.10;;;8.10;59.40;7.70;93708.00;;;;5058667;28;20246;-84
2023/01/17 01:54:21;;;;;;;2.10;0.20;;;8.10;59.30;7.70;93711.00;;;;5055061;28;20220;-84
2023/01/17 01:56:51;;;;;;;0.57;0.20;;;8.10;59.30;7.70;93713.00;;;;5072147;28;20183;-84
2023/01/17 01:59:52;;;;;;;2.60;0.30;;;8.00;59.30;7.60;93715.00;;;;5062291;28;20196;-84
2023/01/17 02:02:19;;;;;;;0.27;0.10;;;8.00;59.30;7.60;93703.00;;;;5051236;28;20220;-83
2023/01/17 02:04:54;;;;;;;2.37;0.20;;;8.00;59.30;7.60;93711.00;;;;5059060;28;20208;-84
2023/01/17 02:07:28;;;;;;;0.23;0.10;;;8.00;59.30;7.60;93704.00;;;;5049032;28;20197;-84
2023/01/17 02:09:55;;;;;;;0.13;0.10;;;8.00;59.30;7.60;93700.00;;;;5061936;22;20229;-85
2023/01/17 02:12:23;;;;;;;0.90;0.20;;;8.00;59.30;7.60;93695.00;;;;5053702;28;20228;-84
2023/01/17 02:14:52;;;;;;;0.30;0.20;;;8.00;59.30;7.60;93697.00;;;;5047255;28;20211;-84
2023/01/17 02:17:38;;;;;;;0.10;0.10;;;7.90;59.20;7.50;93703.00;;;;5046820;28;20196;-84
2023/01/17 02:21:08;;;;;;;0.27;0.20;;;7.90;59.20;7.50;93712.00;;;;5055845;28;20275;-84
2023/01/17 02:24:33;;;;;;;1.50;0.30;;;7.90;59.20;7.40;93708.00;;;;5030751;28;20258;-84
2023/01/17 02:27:26;;;;;;;2.30;0.20;;;7.90;59.20;7.40;93705.00;;;;5046481;28;20231;-84
2023/01/17 02:30:38;;;;;;;0.53;0.20;;;7.90;59.20;7.40;93717.00;;;;5048241;28;20228;-84
2023/01/17 02:33:30;;;;;;;0.23;0.20;;;7.80;59.10;7.30;93709.00;;;;4996494;28;20231;-84
2023/01/17 02:36:17;;;;;;;0.10;0.10;;;7.80;59.20;7.30;93709.00;;;;5006689;28;20264;-83
2023/01/17 02:38:52;;;;;;;1.57;0.20;;;7.70;59.20;7.30;93710.00;;;;5041122;28;20576;-84
2023/01/17 02:41:26;;;;;;;0.67;0.10;;;7.70;59.30;7.30;93708.00;;;;5063309;28;20232;-83
2023/01/17 02:43:54;;;;;;;0.60;0.20;;;7.70;59.40;7.30;93706.00;;;;5055513;28;20228;-84
2023/01/17 02:46:26;;;;;;;0.30;0.13;;;7.70;59.40;7.20;93706.00;;;;5055695;28;20656;-84
2023/01/17 02:48:59;;;;;;;2.60;0.40;;;7.70;59.40;7.20;93712.00;;;;5033465;28;20740;-83
2023/01/17 02:52:24;;;;;;;1.27;0.20;;;7.60;59.40;7.20;93706.00;;;;5055944;28;20301;-83
2023/01/17 02:55:19;;;;;;;0.10;0.10;;;7.60;59.50;7.20;93720.00;;;;5055084;28;20236;-83
2023/01/17 02:58:24;;;;;;;4.80;0.43;;;7.60;59.50;7.10;93718.00;;;;5052043;28;20268;-83
2023/01/17 03:01:09;;;;;;;0.30;0.20;;;7.60;59.60;7.10;93717.00;;;;5043006;28;20232;-84
2023/01/17 03:03:49;;;;;;;2.70;0.30;;;7.60;59.60;7.10;93714.00;;;;5042074;28;20232;-82
2023/01/17 03:06:24;;;;;;;0.20;0.20;;;7.60;59.60;7.10;93720.00;;;;5047233;28;20227;-83
2023/01/17 03:08:55;;;;;;;0.30;0.20;;;7.50;59.60;7.10;93706.00;;;;5045351;28;20192;-84
2023/01/17 03:11:22;;;;;;;1.23;0.20;;;7.50;59.70;7.10;93712.00;;;;5055879;28;20263;-83
2023/01/17 03:13:56;;;;;;;0.67;0.30;;;7.50;59.70;7.10;93714.00;;;;5036788;28;20228;-82
2023/01/17 03:16:26;;;;;;;0.97;0.30;;;7.50;59.80;7.00;93707.00;;;;5048033;28;20204;-82
2023/01/17 03:18:55;;;;;;;4.17;0.30;;;7.50;59.80;7.00;93713.00;;;;5037959;28;20193;-82
2023/01/17 03:21:26;;;;;;;6.77;0.50;;;7.50;59.90;7.10;93713.00;;;;5048752;28;20320;-82
2023/01/17 03:23:53;;;;;;;6.63;0.70;;;7.50;60.10;7.10;93713.00;;;;5049946;28;20193;-83
2023/01/17 03:26:20;;;;;;;0.33;0.20;;;7.50;60.10;7.10;93717.00;;;;5050484;28;20201;-82
2023/01/17 03:28:48;;;;;;;1.47;0.43;;;7.50;60.10;7.10;93714.00;;;;5054718;28;20223;-82
2023/01/17 03:34:23;;;;;;;0.53;0.10;;;7.40;60.00;7.10;93718.00;;;;5054773;28;20193;-83
2023/01/17 03:36:50;;;;;;;1.13;0.30;;;7.50;60.00;7.00;93719.00;;;;5051295;28;20201;-83
2023/01/17 03:39:17;;;;;;;0.37;0.20;;;7.40;60.00;7.00;93725.00;;;;5053385;28;20219;-83
2023/01/17 03:41:55;;;;;;;0.57;0.10;;;7.40;60.10;7.00;93732.00;;;;5058867;28;20750;-82
2023/01/17 03:44:34;;;;;;;0.20;0.10;;;7.40;60.20;7.00;93737.00;;;;5056876;28;20200;-82
2023/01/17 03:47:04;;;;;;;3.47;0.60;;;7.40;60.20;7.00;93737.00;;;;5048621;28;20192;-82
2023/01/17 03:49:36;;;;;;;1.50;0.20;;;7.40;60.30;7.00;93732.00;;;;5053038;28;20793;-81
2023/01/17 03:52:04;;;;;;;0.13;0.13;;;7.40;60.50;7.00;93739.00;;;;5067757;28;20558;-82
2023/01/17 03:54:36;;;;;;;0.77;0.20;;;7.40;60.50;7.00;93740.00;;;;5048775;28;20229;-82
2023/01/17 03:57:07;;;;;;;0.87;0.33;;;7.40;60.50;7.00;93729.00;;;;5060316;28;20872;-81
2023/01/17 03:59:35;;;;;;;0.43;0.13;;;7.40;60.60;7.00;93735.00;;;;5051221;28;20228;-82
2023/01/17 04:02:11;;;;;;;0.20;0.20;;;7.40;60.60;7.00;93743.00;;;;5050129;28;20267;-82
2023/01/17 04:04:41;;;;;;;1.17;0.30;;;7.40;60.70;7.00;93734.00;;;;5068630;28;20200;-82
2023/01/17 04:07:21;;;;;;;0.20;0.10;;;7.40;60.70;7.00;93726.00;;;;5054755;28;20244;-83
2023/01/17 04:09:55;;;;;;;1.33;0.27;;;7.40;60.80;7.00;93729.00;;;;5055177;28;20331;-83
2023/01/17 04:12:30;;;;;;;1.80;0.30;;;7.40;60.80;7.00;93734.00;;;;5053421;28;20192;-83
2023/01/17 04:15:01;;;;;;;2.80;0.43;;;7.40;60.80;7.00;93740.00;;;;5052421;28;20657;-82
2023/01/17 04:17:34;;;;;;;1.27;0.20;;;7.40;60.90;7.00;93737.00;;;;5041850;28;20263;-82
2023/01/17 04:20:13;;;;;;;0.40;0.20;;;7.40;60.90;7.00;93743.00;;;;5050199;28;20232;-82
2023/01/17 04:22:40;;;;;;;0.73;0.10;;;7.40;61.10;7.00;93745.00;;;;5049712;28;20252;-83
2023/01/17 04:25:10;;;;;;;0.20;0.20;;;7.40;61.00;7.00;93738.00;;;;5053352;28;20228;-82
2023/01/17 04:27:40;;;;;;;0.73;0.10;;;7.40;61.10;7.00;93744.00;;;;5059472;28;20212;-82
2023/01/17 04:30:20;;;;;;;0.17;0.10;;;7.30;61.00;6.90;93738.00;;;;5053146;28;20863;-82
2023/01/17 04:32:50;;;;;;;0.10;0.10;;;7.40;61.10;6.90;93738.00;;;;5046820;28;20204;-81
2023/01/17 04:38:39;;;;;;;0.10;0.10;;;7.30;61.10;6.90;93736.00;;;;5052298;28;20204;-82
2023/01/17 04:43:54;;;;;;;5.27;0.70;;;7.30;61.20;6.90;93745.00;;;;5047151;28;20196;-82
2023/01/17 04:46:22;;;;;;;0.17;0.17;;;7.30;61.30;6.90;93744.00;;;;5056746;28;20849;-81
2023/01/17 04:49:11;;;;;;;1.13;0.10;;;7.30;61.40;6.90;93745.00;;;;5059890;28;20238;-82
2023/01/17 04:51:40;;;;;;;1.57;0.23;;;7.30;61.40;6.90;93741.00;;;;5057579;28;20221;-82
2023/01/17 04:54:08;;;;;;;0.37;0.20;;;7.40;61.40;7.00;93735.00;;;;5063275;28;20191;-82
2023/01/17 04:56:39;;;;;;;0.80;0.20;;;7.30;61.40;6.90;93737.00;;;;5059121;28;20204;-81
2023/01/17 04:59:06;;;;;;;0.10;0.10;;;7.30;61.40;6.90;93741.00;;;;5058534;28;20228;-82
2023/01/17 05:01:41;;;;;;;0.20;0.20;;;7.30;61.50;6.90;93742.00;;;;5052560;28;20278;-82
2023/01/17 05:04:15;;;;;;;0.20;0.20;;;7.30;61.50;6.90;93748.00;;;;5053601;28;20287;-81
2023/01/17 05:09:32;;;;;;;0.60;0.33;;;7.30;61.50;6.90;93760.00;;;;5046377;28;20216;-81
2023/01/17 05:11:59;;;;;;;0.50;0.40;;;7.20;61.30;6.80;93755.00;;;;5048894;28;20262;-82
2023/01/17 05:14:33;;;;;;;1.40;0.70;;;7.20;61.40;6.80;93752.00;;;;5042218;28;20201;-81
2023/01/17 05:17:11;;;;;;;0.90;0.50;;;7.20;61.50;6.80;93758.00;;;;5048620;28;20192;-81
2023/01/17 05:19:48;;;;;;;0.67;0.40;;;7.20;62.20;6.80;93763.00;;;;5048548;28;20216;-81
2023/01/17 05:22:19;;;;;;;1.20;0.30;;;7.20;61.50;6.80;93761.00;;;;5054056;28;20778;-81
2023/01/17 05:24:49;;;;;;;8.17;0.80;;;7.20;61.60;6.70;93762.00;;;;5047027;28;20208;-81
2023/01/17 05:27:25;;;;;;;9.67;0.87;;;7.10;61.50;6.70;93760.00;;;;5053112;28;20251;-82
2023/01/17 05:30:11;;;;;;;4.00;0.70;;;7.10;61.60;6.70;93773.00;;;;5064992;28;20219;-82
2023/01/17 05:32:45;;;;;;;0.77;0.70;;;7.10;61.70;6.70;93779.00;;;;5046751;28;20585;-82
2023/01/17 05:35:20;;;;;;;28.10;3.00;;;7.00;61.60;6.70;93784.00;;;;5051156;28;20196;-83
2023/01/17 05:37:53;;;;;;;1.30;0.73;;;7.00;61.70;6.70;93779.00;;;;5051162;28;20199;-83
2023/01/17 05:40:28;;;;;;;1.50;0.57;;;7.00;61.90;6.70;93792.00;;;;5052142;28;20224;-83
2023/01/17 05:43:03;;;;;;;2.43;0.50;;;7.00;61.80;6.60;93791.00;;;;5041565;28;20633;-83
2023/01/17 05:45:36;;;;;;;5.23;0.70;;;7.00;61.70;6.60;93784.00;;;;5051722;28;20216;-83
2023/01/17 05:48:11;;;;;;;0.30;0.30;;;7.00;61.80;6.60;93782.00;;;;5049865;28;20247;-83
2023/01/17 05:50:38;;;;;;;1.50;0.50;;;6.90;62.00;6.50;93787.00;;;;5047046;28;20238;-83
2023/01/17 05:53:11;;;;;;;13.53;1.07;;;6.90;62.00;6.50;93783.00;;;;5051308;28;20228;-83
2023/01/17 05:55:42;;;;;;;0.30;0.30;;;6.90;62.10;6.50;93796.00;;;;5051662;28;20216;-83
2023/01/17 05:58:16;;;;;;;3.07;0.77;;;6.80;62.10;6.40;93801.00;;;;5050699;28;20717;-83
2023/01/17 06:00:47;;;;;;;8.50;1.40;;;6.80;62.10;6.40;93799.00;;;;5050621;28;20783;-83
2023/01/17 06:03:15;;;;;;;1.20;1.03;;;6.80;62.10;6.40;93811.00;;;;5046706;28;20289;-83
2023/01/17 06:05:51;;;;;;;1.10;0.80;;;6.80;62.20;6.40;93807.00;;;;5050034;28;20251;-83
2023/01/17 06:09:02;;;;;;;0.77;0.60;;;6.80;62.30;6.30;93811.00;;;;5046539;28;20622;-83
2023/01/17 06:11:35;;;;;;;0.83;0.60;;;6.70;62.40;6.30;93812.00;;;;5050916;28;20744;-84
2023/01/17 06:14:20;;;;;;;1.53;0.80;;;6.70;62.30;6.30;93807.00;;;;5052536;28;20804;-83
2023/01/17 06:16:52;;;;;;;0.80;0.80;;;6.70;62.40;6.20;93811.00;;;;5051175;28;20223;-83
2023/01/17 06:19:29;;;;;;;2.67;1.03;;;6.60;62.30;6.20;93807.00;;;;5052036;28;20213;-83
2023/01/17 06:21:56;;;;;;;2.47;1.07;;;6.60;62.40;6.20;93802.00;;;;5045526;28;20211;-81
2023/01/17 06:24:29;;;;;;;0.40;0.40;;;6.60;62.50;6.20;93804.00;;;;5047284;28;20262;-84
2023/01/17 06:27:11;;;;;;;8.50;0.70;;;6.60;62.60;6.20;93805.00;;;;5051040;28;20305;-83
2023/01/17 06:29:49;;;;;;;2.43;0.60;;;6.50;62.60;6.10;93803.00;;;;5041620;28;20232;-81
2023/01/17 06:32:30;;;;;;;6.20;0.70;;;6.50;62.50;6.10;93806.00;;;;5047194;28;20624;-84
2023/01/17 06:34:59;;;;;;;6.37;0.77;;;6.50;62.40;6.00;93792.00;;;;5047266;28;20615;-83
2023/01/17 06:37:36;;;;;;;3.27;0.80;;;6.40;62.30;6.00;93787.00;;;;5047868;28;20595;-86
2023/01/17 06:40:16;;;;;;;7.00;1.43;;;6.40;62.30;5.90;93789.00;;;;5049743;28;20766;-85
2023/01/17 06:42:45;;;;;;;1.47;1.07;;;6.30;62.20;5.90;93789.00;;;;5050750;28;20296;-83
2023/01/17 06:45:19;;;;;;;5.33;1.33;;;6.30;62.20;5.80;93789.00;;;;5042605;28;20200;-84
2023/01/17 06:47:49;;;;;;;1.87;1.20;;;6.20;62.30;5.80;93790.00;;;;5052349;28;20286;-83
2023/01/17 06:50:27;;;;;;;2.60;1.20;;;6.20;62.30;5.80;93793.00;;;;5045473;28;20216;-83
2023/01/17 06:53:05;;;;;;;3.30;1.20;;;6.10;62.20;5.80;93787.00;;;;5044035;28;20843;-83
2023/01/17 06:55:42;;;;;;;2.80;1.30;;;6.10;62.20;5.80;93786.00;;;;5048491;28;20280;-83
2023/01/17 06:58:17;;;;;;;2.87;1.27;;;6.00;62.30;5.70;93791.00;;;;5050662;28;20283;-83
2023/01/17 07:00:44;;;;;;;10.30;2.00;;;6.00;62.30;5.70;93792.00;;;;5037967;28;20692;-83
2023/01/17 07:03:19;;;;;;;2.07;1.07;;;6.00;62.40;5.60;93790.00;;;;5051238;28;20228;-83
2023/01/17 07:05:47;;;;;;;3.27;1.07;;;5.90;62.50;5.60;93788.00;;;;5046400;28;20211;-83
2023/01/17 07:08:15;;;;;;;1.40;1.00;;;5.90;62.80;5.60;93790.00;;;;5050025;28;20193;-83
2023/01/17 07:10:44;;;;;;;1.50;1.07;;;5.80;62.90;5.60;93789.00;;;;5054186;28;20236;-83
2023/01/17 07:13:13;;;;;;;2.90;1.10;;;5.80;63.20;5.50;93786.00;;;;5054275;28;20342;-83
2023/01/17 07:15:40;;;;;;;2.87;1.07;;;5.80;63.40;5.50;93787.00;;;;5043693;28;20607;-83
2023/01/17 07:18:08;;;;;;;3.27;1.10;;;5.80;63.50;5.50;93794.00;;;;5054555;28;20650;-83
2023/01/17 07:20:37;;;;;;;1.50;1.10;;;5.80;63.60;5.50;93779.00;;;;5049857;28;20307;-82
2023/01/17 07:23:04;;;;;;;5.50;1.00;;;5.80;63.60;5.50;93763.00;;;;5053466;28;20310;-83
2023/01/17 07:25:32;;;;;;;3.47;1.23;;;5.80;63.50;5.50;93763.00;;;;5053301;28;20831;-82
2023/01/17 07:28:00;;;;;;;3.50;0.90;;;5.80;63.40;5.50;93770.00;;;;5052910;28;20709;-82
2023/01/17 07:30:36;;;;;;;0.97;0.97;;;5.70;63.20;5.40;93764.00;;;;5050925;28;20248;-82
2023/01/17 07:33:08;;;;;;;0.83;0.77;;;5.70;63.10;5.40;93771.00;;;;5052498;28;20227;-82
2023/01/17 07:35:36;;;;;;;4.77;2.50;;;5.70;63.00;5.30;93762.00;;;;5049125;28;20814;-82
2023/01/17 07:38:04;;;;;;;5.43;2.03;;;5.70;63.00;5.30;93751.00;;;;5052634;28;20217;-83
2023/01/17 07:40:32;;;;;;;7.87;3.77;;;5.60;63.10;5.30;93752.00;;;;5052419;28;20221;-82
2023/01/17 07:43:12;;;;;;;12.53;5.30;;;5.60;64.00;5.30;93759.00;;;;5046526;28;20251;-83
2023/01/17 07:45:42;;;;;;;11.57;4.47;;;5.60;63.50;5.30;93750.00;;;;5053654;28;20609;-83
2023/01/17 07:48:10;;;;;;;4.43;3.20;;;5.50;63.50;5.30;93758.00;;;;5052620;28;20197;-83
2023/01/17 07:50:39;;;;;;;4.73;3.60;;;5.50;63.50;5.20;93753.00;;;;5053635;28;20263;-83
2023/01/17 07:53:06;;;;;;;6.20;3.60;;;5.50;63.50;5.20;93750.00;;;;5052402;28;20599;-83
2023/01/17 07:55:33;;;;;;;10.93;4.50;;;5.50;64.30;5.20;93755.00;;;;5049802;28;20212;-84
2023/01/17 07:58:02;;;;;;;5.80;4.27;;;5.40;63.60;5.20;93751.00;;;;5047432;28;20200;-82
2023/01/17 08:00:29;;;;;;;3.83;3.17;;;5.40;63.80;5.20;93763.00;;;;5042752;28;20474;-83
2023/01/17 08:02:57;;;;;;;5.30;2.60;;;5.40;64.00;5.20;93764.00;;;;5054272;28;20304;-83
2023/01/17 08:05:27;;;;;;;5.20;1.60;;;5.40;64.20;5.20;93762.00;;;;5053193;28;20219;-83
2023/01/17 08:07:56;;;;;;;6.63;1.50;;;5.40;64.50;5.20;93758.00;;;;5053871;28;20213;-83
2023/01/17 08:10:23;;;;;;;2.13;1.13;;;5.40;64.70;5.20;93755.00;;;;5052213;28;20738;-83
2023/01/17 08:12:50;;;;;;;2.73;1.13;;;5.40;64.80;5.30;93761.00;;;;5041283;28;20239;-83
2023/01/17 08:15:19;;;;;;;0.97;0.83;;;5.40;65.10;5.30;93747.00;;;;5052361;28;20232;-83
2023/01/17 08:17:47;;;;;;;2.00;0.97;;;5.50;65.40;5.30;93748.00;;;;5052156;28;20201;-83
2023/01/17 08:20:16;;;;;;;0.80;0.50;;;5.50;65.50;5.40;93747.00;;;;5044456;28;20240;-83
2023/01/17 08:22:43;;;;;;;5.67;1.37;;;5.60;65.80;5.50;93738.00;;;;5053266;28;20196;-83
2023/01/17 08:25:11;;;;;;;3.60;0.63;;;5.60;65.90;5.50;93739.00;;;;5043780;28;20235;-83
2023/01/17 08:27:39;;;;;;;2.60;0.60;;;5.70;66.10;5.60;93732.00;;;;5052582;28;20197;-83
2023/01/17 08:30:08;;;;;;;1.33;0.70;;;5.70;66.10;5.70;93733.00;;;;5050032;28;20243;-83
2023/01/17 08:32:39;;;;;;;1.40;0.80;;;5.80;66.10;5.80;93736.00;;;;5036552;28;20209;-83
2023/01/17 08:35:07;;;;;;;1.93;0.90;;;5.80;66.10;5.80;93737.00;;;;5052050;28;20216;-83
2023/01/17 08:37:36;;;;;;;2.20;0.70;;;5.90;66.00;5.90;93733.00;;;;5050641;28;20292;-83
2023/01/17 08:40:04;;;;;;;1.10;0.80;;;6.00;66.10;6.00;93729.00;;;;5051442;28;20680;-83
2023/01/17 08:42:36;;;;;;;0.70;0.70;;;6.10;66.00;6.10;93738.00;;;;5044767;28;20207;-83
2023/01/17 08:45:04;;;;;;;1.73;0.80;;;6.10;65.90;6.20;93733.00;;;;5048992;28;20221;-83
2023/01/17 08:47:32;;;;;;;1.03;0.60;;;6.20;65.80;6.30;93730.00;;;;5041407;28;20205;-83
2023/01/17 08:50:00;;;;;;;1.03;0.80;;;6.30;65.80;6.40;93740.00;;;;5044675;28;20687;-83
2023/01/17 08:52:28;;;;;;;6.13;0.90;;;6.40;65.80;6.50;93740.00;;;;5048626;28;20216;-83
2023/01/17 08:54:56;;;;;;;2.97;1.30;;;6.50;65.70;6.60;93747.00;;;;5052473;28;20649;-83
2023/01/17 08:57:23;;;;;;;0.90;0.80;;;6.60;65.70;6.70;93745.00;;;;5047175;28;20654;-83
2023/01/17 08:59:51;;;;;;;18.03;2.00;;;6.60;65.60;6.80;93740.00;;;;5044829;28;20266;-83
2023/01/17 09:02:20;;;;;;;8.43;0.90;;;6.80;65.60;6.90;93747.00;;;;5047520;28;20231;-83
2023/01/17 09:04:49;;;;;;;2.70;0.80;;;6.80;65.70;7.10;93745.00;;;;5047901;28;20232;-83
2023/01/17 09:07:20;;;;;;;2.97;0.60;;;7.00;65.80;7.20;93749.00;;;;5050709;28;20270;-83
2023/01/17 09:09:47;;;;;;;3.20;0.50;;;7.10;65.60;7.30;93747.00;;;;5044927;28;20232;-83
2023/01/17 09:12:19;;;;;;;1.30;0.67;;;7.20;65.30;7.40;93748.00;;;;5048203;28;20262;-83
2023/01/17 09:14:56;;;;;;;1.67;0.57;;;7.20;65.10;7.50;93756.00;;;;5051997;28;20197;-83
2023/01/17 09:17:27;;;;;;;0.53;0.50;;;7.40;65.10;7.60;93744.00;;;;5052261;28;20208;-83
2023/01/17 09:20:00;;;;;;;2.83;0.67;;;7.50;65.00;7.70;93747.00;;;;5051485;28;20565;-83
2023/01/17 09:22:43;;;;;;;0.63;0.63;;;7.60;64.90;7.80;93753.00;;;;5047992;28;20657;-83
2023/01/17 09:25:23;;;;;;;1.37;0.50;;;7.70;64.70;7.90;93754.00;;;;5039519;28;20212;-83
2023/01/17 09:28:08;;;;;;;0.60;0.60;;;7.80;64.40;8.00;93747.00;;;;5032866;28;20209;-83
2023/01/17 09:31:00;;;;;;;0.80;0.70;;;7.90;65.10;8.10;93751.00;;;;5044781;28;20592;-83
2023/01/17 09:33:33;;;;;;;1.20;0.50;;;7.90;64.30;8.20;93753.00;;;;5031696;28;20212;-83
2023/01/17 09:36:04;;;;;;;3.60;0.80;;;8.00;64.10;8.20;93757.00;;;;5042704;28;20228;-84
2023/01/17 09:38:55;;;;;;;1.67;0.60;;;8.10;64.00;8.30;93764.00;;;;5032022;28;20197;-83
2023/01/17 09:41:30;;;;;;;9.70;0.80;;;8.20;63.60;8.40;93761.00;;;;5042464;28;20209;-83
2023/01/17 09:44:32;;;;;;;1.20;0.50;;;8.30;63.60;8.50;93768.00;;;;5049894;28;20319;-83
2023/01/17 09:47:11;;;;;;;0.77;0.40;;;8.40;63.00;8.60;93762.00;;;;5041996;28;20284;-83
2023/01/17 09:49:43;;;;;;;0.87;0.60;;;8.50;62.90;8.70;93762.00;;;;5043775;28;20197;-83
2023/01/17 09:52:15;;;;;;;1.03;0.80;;;8.60;62.80;8.80;93763.00;;;;5049991;28;20243;-83
2023/01/17 09:54:48;;;;;;;1.43;0.50;;;8.70;62.90;9.00;93758.00;;;;5052226;28;20200;-83
2023/01/17 09:57:49;;;;;;;22.90;2.27;;;8.80;62.90;9.20;93754.00;;;;5050900;28;20220;-83
2023/01/17 10:00:54;;;;;;;1.70;0.80;;;9.00;63.20;9.40;93757.00;;;;5050933;28;20243;-83
2023/01/17 10:04:17;;;;;;;0.60;0.60;;;9.20;62.90;9.60;93753.00;;;;5047655;28;20660;-83
2023/01/17 10:07:19;;;;;;;0.63;0.53;;;9.30;62.90;9.80;93727.00;;;;4992923;28;20207;-83
2023/01/17 10:10:26;;;;;;;0.60;0.47;;;9.60;62.20;10.00;93714.00;;;;4994756;28;20260;-84
2023/01/17 10:13:07;;;;;;;5.20;0.70;;;9.80;61.70;10.30;93692.00;;;;5044004;28;20228;-83
2023/01/17 10:16:20;;;;;;;11.57;1.27;;;10.10;62.60;10.50;93689.00;;;;5049077;28;20204;-83
2023/01/17 10:19:25;;;;;;;3.47;0.70;;;10.30;62.20;10.70;93689.00;;;;5048382;28;20228;-83
2023/01/17 10:22:43;;;;;;;17.17;1.30;;;10.50;62.30;10.90;93680.00;;;;5041221;28;20211;-83
2023/01/17 10:25:43;;;;;;;0.43;0.40;;;10.80;61.80;11.10;93685.00;;;;5044878;28;20244;-82
2023/01/17 10:28:17;;;;;;;0.30;0.30;;;11.00;60.70;11.20;93678.00;;;;5041055;28;20221;-83
2023/01/17 10:30:49;;;;;;;0.50;0.50;;;11.10;60.20;11.30;93680.00;;;;5050699;28;20602;-83
2023/01/17 10:33:21;;;;;;;36.90;2.10;;;11.30;60.00;11.40;93668.00;;;;5050671;28;20220;-83
2023/01/17 10:35:58;;;;;;;0.70;0.50;;;11.40;59.70;11.40;93680.00;;;;5046650;28;20667;-84
2023/01/17 10:38:31;;;;;;;5.23;0.60;;;11.50;59.30;11.50;93679.00;;;;5052528;28;20219;-83
2023/01/17 10:41:07;;;;;;;8.37;0.90;;;11.60;59.10;11.60;93678.00;;;;5048298;28;20270;-83
2023/01/17 10:44:01;;;;;;;0.60;0.60;;;11.60;59.00;11.70;93672.00;;;;5050999;28;20286;-83
2023/01/17 10:46:49;;;;;;;12.67;1.27;;;11.70;58.90;11.80;93677.00;;;;5044282;28;20199;-83
2023/01/17 10:49:22;;;;;;;2.20;0.50;;;11.80;58.30;11.80;93671.00;;;;5043505;28;20258;-83
2023/01/17 10:52:15;;;;;;;0.57;0.40;;;11.80;58.20;11.80;93666.00;;;;5045454;28;20678;-83
2023/01/17 10:55:03;;;;;;;6.43;0.77;;;11.90;57.30;11.80;93675.00;;;;5050312;28;20651;-83
2023/01/17 10:57:51;;;;;;;1.83;0.60;;;11.80;57.00;11.70;93666.00;;;;5047781;28;20200;-83
2023/01/17 11:00:42;;;;;;;3.50;0.70;;;11.80;56.50;11.60;93671.00;;;;5050532;28;20689;-83
2023/01/17 11:03:36;;;;;;;;;;;;;;;;;;;;;
2023/01/17 11:06:19;;;;;;;0.50;0.50;;;11.70;56.40;11.50;93670.00;;;;5040810;28;20197;-83
2023/01/17 11:08:53;;;;;;;2.77;0.57;;;11.60;56.10;11.50;93658.00;;;;5048662;28;20228;-83
2023/01/17 11:11:24;;;;;;;1.63;0.30;;;11.50;56.20;11.40;93651.00;;;;5044978;28;20252;-83
2023/01/17 11:14:08;;;;;;;3.63;0.60;;;11.40;56.20;11.30;93646.00;;;;5049840;28;20232;-83
2023/01/17 11:17:11;;;;;;;0.80;0.53;;;11.30;55.90;11.20;93639.00;;;;5040943;28;20239;-83
2023/01/17 11:19:46;;;;;;;1.77;0.40;;;11.30;55.70;11.20;93635.00;;;;5047405;28;20197;-83
2023/01/17 11:22:37;;;;;;;0.30;0.30;;;11.20;56.00;11.10;93618.00;;;;5044341;28;20212;-83
2023/01/17 11:25:29;;;;;;;1.77;0.50;;;11.10;55.50;11.00;93608.00;;;;5048760;28;20255;-84
2023/01/17 11:28:14;;;;;;;0.60;0.40;;;11.10;56.00;11.00;93595.00;;;;5043659;28;20189;-83
2023/01/17 11:30:56;;;;;;;0.30;0.27;;;11.00;56.00;10.90;93597.00;;;;5049014;28;20240;-83
2023/01/17 11:33:54;;;;;;;3.33;0.50;;;11.00;55.70;10.80;93584.00;;;;5050718;28;20287;-83
2023/01/17 11:36:28;;;;;;;1.00;0.40;;;10.90;55.70;10.70;93578.00;;;;5042263;28;20233;-82
2023/01/17 11:39:20;;;;;;;18.70;1.27;;;10.80;55.90;10.70;93577.00;;;;5036056;28;20242;-83
2023/01/17 11:41:53;;;;;;;4.50;0.60;;;10.70;56.10;10.60;93577.00;;;;5038191;28;20214;-83
2023/01/17 11:44:26;;;;;;;3.73;0.50;;;10.70;56.10;10.60;93574.00;;;;5052067;28;20307;-83
2023/01/17 11:47:20;;;;;;;0.90;0.40;;;10.60;56.00;10.50;93573.00;;;;5045595;28;20254;-83
2023/01/17 11:49:58;;;;;;;0.30;0.30;;;10.60;55.60;10.50;93586.00;;;;5051802;28;20244;-83
2023/01/17 11:52:36;;;;;;;0.80;0.30;;;10.50;55.80;10.50;93574.00;;;;5053752;28;20188;-83
2023/01/17 11:55:05;;;;;;;0.47;0.30;;;10.50;55.70;10.50;93568.00;;;;5048536;28;20200;-83
2023/01/17 11:57:35;;;;;;;14.97;1.17;;;10.50;55.90;10.50;93562.00;;;;5047679;28;20220;-84
2023/01/17 12:00:18;;;;;;;2.47;0.30;;;10.50;56.10;10.50;93558.00;;;;5049414;28;20745;-83
2023/01/17 12:03:24;;;;;;;0.17;0.17;;;10.50;56.00;10.50;93550.00;;;;5041952;28;20200;-83
2023/01/17 12:06:03;;;;;;;1.33;0.40;;;10.50;55.80;10.50;93553.00;;;;5034102;28;20241;-83
2023/01/17 12:08:54;;;;;;;5.20;0.80;;;10.50;56.10;10.50;93549.00;;;;5051271;28;20181;-83
2023/01/17 12:11:29;;;;;;;0.60;0.27;;;10.50;56.00;10.60;93545.00;;;;5053328;28;20740;-83
2023/01/17 12:14:17;;;;;;;3.80;0.70;;;10.40;56.10;10.60;93549.00;;;;5043242;28;20199;-83
2023/01/17 12:17:17;;;;;;;1.87;0.30;;;10.50;56.20;10.60;93550.00;;;;5053379;28;20193;-83
2023/01/17 12:20:04;;;;;;;6.83;0.60;;;10.50;56.10;10.60;93540.00;;;;5049953;28;20259;-83
2023/01/17 12:23:37;;;;;;;1.77;0.53;;;10.50;56.30;10.70;93538.00;;;;5062408;28;20204;-83
2023/01/17 12:26:32;;;;;;;2.80;0.50;;;10.60;56.40;10.70;93528.00;;;;4998022;28;20278;-83
2023/01/17 12:29:46;;;;;;;3.20;0.47;;;10.60;56.40;10.60;93526.00;;;;5061009;28;20317;-84
2023/01/17 12:32:49;;;;;;;3.90;0.50;;;10.60;56.10;10.60;93516.00;;;;5068875;28;20243;-86
2023/01/17 12:35:26;;;;;;;4.67;0.73;;;10.60;56.30;10.60;93517.00;;;;5042411;28;20288;-84
2023/01/17 12:38:03;;;;;;;7.47;0.87;;;10.60;56.50;10.60;93513.00;;;;5054695;28;20201;-83
2023/01/17 12:40:44;;;;;;;0.37;0.10;;;10.60;56.50;10.60;93503.00;;;;5049977;28;20228;-83
2023/01/17 12:43:22;;;;;;;32.80;3.03;;;10.60;56.40;10.60;93499.00;;;;5053310;28;20192;-83
2023/01/17 12:46:19;;;;;;;5.80;0.63;;;10.60;56.40;10.60;93491.00;;;;5040088;28;20608;-84
2023/01/17 12:49:07;;;;;;;6.73;0.60;;;10.50;56.40;10.60;93481.00;;;;5051969;28;20209;-84
2023/01/17 12:51:55;;;;;;;0.87;0.30;;;10.50;56.20;10.60;93478.00;;;;5036879;28;20265;-83
2023/01/17 12:54:52;;;;;;;0.73;0.30;;;10.50;56.00;10.60;93466.00;;;;5052605;28;20185;-84
2023/01/17 12:57:47;;;;;;;2.40;0.40;;;10.60;55.90;10.60;93455.00;;;;5049915;28;20211;-84
2023/01/17 13:00:39;;;;;;;0.77;0.20;;;10.60;56.00;10.70;93453.00;;;;5050081;28;20228;-84
2023/01/17 13:03:26;;;;;;;11.33;0.70;;;10.60;55.90;10.70;93448.00;;;;5046532;28;20228;-84
2023/01/17 13:05:57;;;;;;;4.37;1.13;;;10.60;56.10;10.70;93445.00;;;;5051269;28;20227;-84
2023/01/17 13:08:40;;;;;;;1.60;0.60;;;10.60;56.30;10.70;93433.00;;;;5053605;28;20232;-85
2023/01/17 13:11:26;;;;;;;8.90;0.60;;;10.60;56.20;10.70;93431.00;;;;5053262;28;20228;-84
2023/01/17 13:13:58;;;;;;;0.60;0.30;;;10.60;56.20;10.70;93430.00;;;;5053239;28;20204;-84
2023/01/17 13:16:37;;;;;;;0.27;0.27;;;10.60;56.00;10.70;93421.00;;;;5032227;28;20197;-83
2023/01/17 13:19:17;;;;;;;6.33;0.70;;;10.60;55.90;10.80;93427.00;;;;5036840;28;20236;-84
2023/01/17 13:21:47;;;;;;;5.30;0.70;;;10.60;56.00;10.80;93425.00;;;;5044424;28;20340;-83
2023/01/17 13:24:28;;;;;;;3.97;0.70;;;10.60;56.00;10.80;93425.00;;;;5037006;28;21650;-83